sensor_id;sensor_type;location;lat;lon;timestamp;P1;durP1;ratioP1;P2;durP2;ratioP2
42066;SDS011;27734;47.028;28.820;2023-08-01T00:01:38;16.33;;;8.10;;
42066;SDS011;27734;47.028;28.820;2023-08-01T00:04:09;14.47;;;7.70;;
42066;SDS011;27734;47.028;28.820;2023-08-01T00:06:40;14.87;;;8.20;;
42066;SDS011;27734;47.028;28.820;2023-08-01T00:09:12;13.77;;;7.60;;
42066;SDS011;27734;47.028;28.820;2023-08-01T00:11:43;15.55;;;8.25;;
42066;SDS011;27734;47.028;28.820;2023-08-01T00:14:14;16.93;;;8.50;;
42066;SDS011;27734;47.028;28.820;2023-08-01T00:16:47;17.48;;;8.48;;
42066;SDS011;27734;47.028;28.820;2023-08-01T00:19:18;13.60;;;7.77;;
42066;SDS011;27734;47.028;28.820;2023-08-01T00:21:50;14.60;;;8.33;;
42066;SDS011;27734;47.028;28.820;2023-08-01T00:24:21;16.33;;;8.37;;
42066;SDS011;27734;47.028;28.820;2023-08-01T00:26:52;18.53;;;8.83;;
42066;SDS011;27734;47.028;28.820;2023-08-01T00:29:24;18.30;;;8.40;;
42066;SDS011;27734;47.028;28.820;2023-08-01T00:31:55;17.80;;;7.90;;
42066;SDS011;27734;47.028;28.820;2023-08-01T00:34:26;14.33;;;8.20;;
42066;SDS011;27734;47.028;28.820;2023-08-01T00:36:58;12.00;;;7.80;;
42066;SDS011;27734;47.028;28.820;2023-08-01T00:39:29;17.07;;;8.40;;
42066;SDS011;27734;47.028;28.820;2023-08-01T00:42:00;16.25;;;8.25;;
42066;SDS011;27734;47.028;28.820;2023-08-01T00:44:32;15.07;;;8.53;;
42066;SDS011;27734;47.028;28.820;2023-08-01T00:47:04;16.50;;;8.33;;
42066;SDS011;27734;47.028;28.820;2023-08-01T00:52:07;15.20;;;7.93;;
42066;SDS011;27734;47.028;28.820;2023-08-01T00:54:40;16.93;;;7.70;;
42066;SDS011;27734;47.028;28.820;2023-08-01T00:57:11;14.97;;;7.93;;
42066;SDS011;27734;47.028;28.820;2023-08-01T00:59:42;13.73;;;7.97;;
42066;SDS011;27734;47.028;28.820;2023-08-01T01:02:14;16.63;;;7.90;;
42066;SDS011;27734;47.028;28.820;2023-08-01T01:04:45;15.60;;;8.53;;
42066;SDS011;27734;47.028;28.820;2023-08-01T01:07:16;19.67;;;9.17;;
42066;SDS011;27734;47.028;28.820;2023-08-01T01:09:51;17.23;;;9.37;;
42066;SDS011;27734;47.028;28.820;2023-08-01T01:12:22;16.33;;;9.60;;
42066;SDS011;27734;47.028;28.820;2023-08-01T01:14:54;16.73;;;8.53;;
42066;SDS011;27734;47.028;28.820;2023-08-01T01:17:25;16.23;;;8.77;;
42066;SDS011;27734;47.028;28.820;2023-08-01T01:19:56;13.97;;;8.57;;
42066;SDS011;27734;47.028;28.820;2023-08-01T01:22:28;19.07;;;9.13;;
42066;SDS011;27734;47.028;28.820;2023-08-01T01:25:01;18.37;;;8.50;;
42066;SDS011;27734;47.028;28.820;2023-08-01T01:27:35;13.73;;;8.60;;
42066;SDS011;27734;47.028;28.820;2023-08-01T01:30:08;17.90;;;10.55;;
42066;SDS011;27734;47.028;28.820;2023-08-01T01:32:40;19.97;;;9.97;;
42066;SDS011;27734;47.028;28.820;2023-08-01T01:35:12;19.53;;;9.80;;
42066;SDS011;27734;47.028;28.820;2023-08-01T01:37:43;22.37;;;11.13;;
42066;SDS011;27734;47.028;28.820;2023-08-01T01:40:14;19.33;;;10.17;;
42066;SDS011;27734;47.028;28.820;2023-08-01T01:42:46;19.37;;;10.67;;
42066;SDS011;27734;47.028;28.820;2023-08-01T01:45:18;31.03;;;12.20;;
42066;SDS011;27734;47.028;28.820;2023-08-01T01:47:49;47.13;;;11.57;;
42066;SDS011;27734;47.028;28.820;2023-08-01T01:50:20;40.67;;;11.87;;
42066;SDS011;27734;47.028;28.820;2023-08-01T01:52:52;49.07;;;12.00;;
42066;SDS011;27734;47.028;28.820;2023-08-01T01:55:23;67.80;;;12.90;;
42066;SDS011;27734;47.028;28.820;2023-08-01T01:57:54;85.97;;;13.30;;
42066;SDS011;27734;47.028;28.820;2023-08-01T02:00:26;129.13;;;13.80;;
42066;SDS011;27734;47.028;28.820;2023-08-01T02:02:57;113.20;;;13.20;;
42066;SDS011;27734;47.028;28.820;2023-08-01T02:05:31;76.60;;;14.60;;
42066;SDS011;27734;47.028;28.820;2023-08-01T02:08:02;258.73;;;15.20;;
42066;SDS011;27734;47.028;28.820;2023-08-01T02:10:33;248.43;;;14.20;;
42066;SDS011;27734;47.028;28.820;2023-08-01T02:13:05;141.03;;;12.77;;
42066;SDS011;27734;47.028;28.820;2023-08-01T02:15:37;116.80;;;13.20;;
42066;SDS011;27734;47.028;28.820;2023-08-01T02:18:08;288.77;;;15.10;;
42066;SDS011;27734;47.028;28.820;2023-08-01T02:20:39;256.07;;;13.87;;
42066;SDS011;27734;47.028;28.820;2023-08-01T02:23:11;261.00;;;14.00;;
42066;SDS011;27734;47.028;28.820;2023-08-01T02:25:43;218.63;;;13.40;;
42066;SDS011;27734;47.028;28.820;2023-08-01T02:28:14;349.33;;;15.00;;
42066;SDS011;27734;47.028;28.820;2023-08-01T02:30:45;611.33;;;20.33;;
42066;SDS011;27734;47.028;28.820;2023-08-01T02:33:18;386.15;;;16.02;;
42066;SDS011;27734;47.028;28.820;2023-08-01T02:35:49;341.23;;;16.77;;
42066;SDS011;27734;47.028;28.820;2023-08-01T02:38:21;144.40;;;13.67;;
42066;SDS011;27734;47.028;28.820;2023-08-01T02:40:52;141.50;;;13.53;;
42066;SDS011;27734;47.028;28.820;2023-08-01T02:43:23;101.00;;;13.57;;
42066;SDS011;27734;47.028;28.820;2023-08-01T02:45:55;75.97;;;12.37;;
42066;SDS011;27734;47.028;28.820;2023-08-01T02:48:28;140.85;;;12.90;;
42066;SDS011;27734;47.028;28.820;2023-08-01T02:51:00;192.50;;;13.20;;
42066;SDS011;27734;47.028;28.820;2023-08-01T02:53:31;159.90;;;12.10;;
42066;SDS011;27734;47.028;28.820;2023-08-01T02:56:03;179.50;;;12.77;;
42066;SDS011;27734;47.028;28.820;2023-08-01T02:58:35;154.40;;;12.80;;
42066;SDS011;27734;47.028;28.820;2023-08-01T03:01:07;425.73;;;17.30;;
42066;SDS011;27734;47.028;28.820;2023-08-01T03:03:40;220.37;;;13.83;;
42066;SDS011;27734;47.028;28.820;2023-08-01T03:06:11;145.93;;;10.70;;
42066;SDS011;27734;47.028;28.820;2023-08-01T03:08:43;94.67;;;10.60;;
42066;SDS011;27734;47.028;28.820;2023-08-01T03:11:15;122.40;;;11.77;;
42066;SDS011;27734;47.028;28.820;2023-08-01T03:13:47;147.45;;;11.80;;
42066;SDS011;27734;47.028;28.820;2023-08-01T03:16:18;186.20;;;12.03;;
42066;SDS011;27734;47.028;28.820;2023-08-01T03:18:49;124.37;;;11.27;;
42066;SDS011;27734;47.028;28.820;2023-08-01T03:21:21;145.33;;;10.87;;
42066;SDS011;27734;47.028;28.820;2023-08-01T03:23:52;170.33;;;11.90;;
42066;SDS011;27734;47.028;28.820;2023-08-01T03:26:23;105.30;;;10.77;;
42066;SDS011;27734;47.028;28.820;2023-08-01T03:28:56;81.37;;;10.80;;
42066;SDS011;27734;47.028;28.820;2023-08-01T03:31:27;25.47;;;11.37;;
42066;SDS011;27734;47.028;28.820;2023-08-01T03:33:59;74.70;;;10.63;;
42066;SDS011;27734;47.028;28.820;2023-08-01T03:36:30;134.05;;;10.60;;
42066;SDS011;27734;47.028;28.820;2023-08-01T03:39:01;69.10;;;9.97;;
42066;SDS011;27734;47.028;28.820;2023-08-01T03:41:33;190.87;;;12.10;;
42066;SDS011;27734;47.028;28.820;2023-08-01T03:44:05;119.63;;;11.00;;
42066;SDS011;27734;47.028;28.820;2023-08-01T03:46:36;271.40;;;13.70;;
42066;SDS011;27734;47.028;28.820;2023-08-01T03:49:08;130.67;;;11.37;;
42066;SDS011;27734;47.028;28.820;2023-08-01T03:51:40;143.73;;;12.13;;
42066;SDS011;27734;47.028;28.820;2023-08-01T03:54:11;71.03;;;12.73;;
42066;SDS011;27734;47.028;28.820;2023-08-01T03:56:42;177.90;;;12.67;;
42066;SDS011;27734;47.028;28.820;2023-08-01T03:59:14;94.20;;;11.47;;
42066;SDS011;27734;47.028;28.820;2023-08-01T04:01:47;281.27;;;13.05;;
42066;SDS011;27734;47.028;28.820;2023-08-01T04:04:18;225.17;;;12.73;;
42066;SDS011;27734;47.028;28.820;2023-08-01T04:06:50;75.97;;;11.23;;
42066;SDS011;27734;47.028;28.820;2023-08-01T04:09:21;81.15;;;10.50;;
42066;SDS011;27734;47.028;28.820;2023-08-01T04:11:52;154.00;;;12.20;;
42066;SDS011;27734;47.028;28.820;2023-08-01T04:14:24;120.57;;;11.30;;
42066;SDS011;27734;47.028;28.820;2023-08-01T04:16:55;99.33;;;11.57;;
42066;SDS011;27734;47.028;28.820;2023-08-01T04:19:26;114.85;;;11.60;;
42066;SDS011;27734;47.028;28.820;2023-08-01T04:21:57;166.50;;;12.67;;
42066;SDS011;27734;47.028;28.820;2023-08-01T04:24:29;56.33;;;11.00;;
42066;SDS011;27734;47.028;28.820;2023-08-01T04:27:00;78.93;;;10.73;;
42066;SDS011;27734;47.028;28.820;2023-08-01T04:29:32;97.97;;;11.27;;
42066;SDS011;27734;47.028;28.820;2023-08-01T04:32:04;107.60;;;11.60;;
42066;SDS011;27734;47.028;28.820;2023-08-01T04:34:41;74.70;;;11.97;;
42066;SDS011;27734;47.028;28.820;2023-08-01T04:37:12;58.17;;;11.93;;
42066;SDS011;27734;47.028;28.820;2023-08-01T04:39:43;131.97;;;12.77;;
42066;SDS011;27734;47.028;28.820;2023-08-01T04:42:15;79.63;;;11.40;;
42066;SDS011;27734;47.028;28.820;2023-08-01T04:44:46;39.23;;;10.93;;
42066;SDS011;27734;47.028;28.820;2023-08-01T04:47:18;19.47;;;11.10;;
42066;SDS011;27734;47.028;28.820;2023-08-01T04:49:50;16.87;;;11.07;;
42066;SDS011;27734;47.028;28.820;2023-08-01T04:52:24;22.53;;;11.67;;
42066;SDS011;27734;47.028;28.820;2023-08-01T04:54:55;123.93;;;12.43;;
42066;SDS011;27734;47.028;28.820;2023-08-01T04:57:29;61.63;;;11.67;;
42066;SDS011;27734;47.028;28.820;2023-08-01T05:00:03;20.67;;;11.97;;
42066;SDS011;27734;47.028;28.820;2023-08-01T05:02:36;34.77;;;12.03;;
42066;SDS011;27734;47.028;28.820;2023-08-01T05:05:13;27.45;;;12.35;;
42066;SDS011;27734;47.028;28.820;2023-08-01T05:07:49;19.37;;;11.87;;
42066;SDS011;27734;47.028;28.820;2023-08-01T05:10:31;19.03;;;12.40;;
42066;SDS011;27734;47.028;28.820;2023-08-01T05:13:11;27.73;;;13.90;;
42066;SDS011;27734;47.028;28.820;2023-08-01T05:16:04;18.05;;;11.90;;
42066;SDS011;27734;47.028;28.820;2023-08-01T05:18:49;18.90;;;12.50;;
42066;SDS011;27734;47.028;28.820;2023-08-01T05:21:23;19.67;;;12.33;;
42066;SDS011;27734;47.028;28.820;2023-08-01T05:24:21;22.30;;;13.07;;
42066;SDS011;27734;47.028;28.820;2023-08-01T05:26:55;18.03;;;11.73;;
42066;SDS011;27734;47.028;28.820;2023-08-01T05:29:27;19.07;;;12.37;;
42066;SDS011;27734;47.028;28.820;2023-08-01T05:31:59;18.67;;;12.23;;
42066;SDS011;27734;47.028;28.820;2023-08-01T05:34:31;20.20;;;13.80;;
42066;SDS011;27734;47.028;28.820;2023-08-01T05:37:07;19.87;;;12.63;;
42066;SDS011;27734;47.028;28.820;2023-08-01T05:39:41;22.00;;;14.13;;
42066;SDS011;27734;47.028;28.820;2023-08-01T05:42:16;20.80;;;13.77;;
42066;SDS011;27734;47.028;28.820;2023-08-01T05:44:51;19.83;;;12.90;;
42066;SDS011;27734;47.028;28.820;2023-08-01T05:47:27;21.27;;;12.97;;
42066;SDS011;27734;47.028;28.820;2023-08-01T05:50:00;20.17;;;13.13;;
42066;SDS011;27734;47.028;28.820;2023-08-01T05:52:41;21.60;;;13.33;;
42066;SDS011;27734;47.028;28.820;2023-08-01T05:55:16;19.90;;;12.93;;
42066;SDS011;27734;47.028;28.820;2023-08-01T05:57:48;21.00;;;13.60;;
42066;SDS011;27734;47.028;28.820;2023-08-01T06:00:24;22.00;;;13.17;;
42066;SDS011;27734;47.028;28.820;2023-08-01T06:03:00;19.20;;;12.60;;
42066;SDS011;27734;47.028;28.820;2023-08-01T06:05:41;23.27;;;13.77;;
42066;SDS011;27734;47.028;28.820;2023-08-01T06:08:17;21.03;;;13.50;;
42066;SDS011;27734;47.028;28.820;2023-08-01T06:10:54;23.13;;;14.70;;
42066;SDS011;27734;47.028;28.820;2023-08-01T06:13:44;21.03;;;13.93;;
42066;SDS011;27734;47.028;28.820;2023-08-01T06:16:47;20.07;;;13.40;;
42066;SDS011;27734;47.028;28.820;2023-08-01T06:22:45;20.70;;;12.87;;
42066;SDS011;27734;47.028;28.820;2023-08-01T06:25:22;23.25;;;14.10;;
42066;SDS011;27734;47.028;28.820;2023-08-01T06:28:02;19.93;;;12.83;;
42066;SDS011;27734;47.028;28.820;2023-08-01T06:30:45;19.80;;;12.80;;
42066;SDS011;27734;47.028;28.820;2023-08-01T06:33:22;21.70;;;13.20;;
42066;SDS011;27734;47.028;28.820;2023-08-01T06:35:58;22.87;;;14.03;;
42066;SDS011;27734;47.028;28.820;2023-08-01T06:38:46;21.23;;;13.27;;
42066;SDS011;27734;47.028;28.820;2023-08-01T06:41:25;22.10;;;14.30;;
42066;SDS011;27734;47.028;28.820;2023-08-01T06:44:02;20.40;;;13.17;;
42066;SDS011;27734;47.028;28.820;2023-08-01T06:46:47;19.97;;;12.53;;
42066;SDS011;27734;47.028;28.820;2023-08-01T06:49:25;21.70;;;13.00;;
42066;SDS011;27734;47.028;28.820;2023-08-01T06:52:05;21.40;;;13.67;;
42066;SDS011;27734;47.028;28.820;2023-08-01T06:58:07;20.43;;;11.20;;
42066;SDS011;27734;47.028;28.820;2023-08-01T07:00:47;19.17;;;10.70;;
42066;SDS011;27734;47.028;28.820;2023-08-01T07:03:20;16.97;;;10.70;;
42066;SDS011;27734;47.028;28.820;2023-08-01T07:06:01;20.50;;;11.40;;
42066;SDS011;27734;47.028;28.820;2023-08-01T07:08:44;17.20;;;9.97;;
42066;SDS011;27734;47.028;28.820;2023-08-01T07:11:20;15.10;;;8.93;;
42066;SDS011;27734;47.028;28.820;2023-08-01T07:13:57;16.17;;;9.27;;
42066;SDS011;27734;47.028;28.820;2023-08-01T07:16:39;19.43;;;9.50;;
42066;SDS011;27734;47.028;28.820;2023-08-01T07:19:13;14.07;;;8.53;;
42066;SDS011;27734;47.028;28.820;2023-08-01T07:22:13;15.57;;;8.37;;
42066;SDS011;27734;47.028;28.820;2023-08-01T07:24:46;14.70;;;7.87;;
42066;SDS011;27734;47.028;28.820;2023-08-01T07:27:28;15.33;;;8.20;;
42066;SDS011;27734;47.028;28.820;2023-08-01T07:30:00;14.40;;;8.40;;
42066;SDS011;27734;47.028;28.820;2023-08-01T07:32:41;18.73;;;9.00;;
42066;SDS011;27734;47.028;28.820;2023-08-01T07:35:12;16.50;;;8.93;;
42066;SDS011;27734;47.028;28.820;2023-08-01T07:37:52;13.53;;;7.60;;
42066;SDS011;27734;47.028;28.820;2023-08-01T07:40:24;14.93;;;7.83;;
42066;SDS011;27734;47.028;28.820;2023-08-01T07:42:56;12.13;;;7.33;;
42066;SDS011;27734;47.028;28.820;2023-08-01T07:45:31;12.50;;;7.53;;
42066;SDS011;27734;47.028;28.820;2023-08-01T07:48:09;17.67;;;8.60;;
42066;SDS011;27734;47.028;28.820;2023-08-01T07:50:40;16.33;;;9.43;;
42066;SDS011;27734;47.028;28.820;2023-08-01T07:53:14;15.07;;;8.50;;
42066;SDS011;27734;47.028;28.820;2023-08-01T07:58:50;15.33;;;8.47;;
42066;SDS011;27734;47.028;28.820;2023-08-01T08:01:25;16.57;;;7.50;;
42066;SDS011;27734;47.028;28.820;2023-08-01T08:04:01;13.47;;;8.00;;
42066;SDS011;27734;47.028;28.820;2023-08-01T08:06:34;15.90;;;8.57;;
42066;SDS011;27734;47.028;28.820;2023-08-01T08:09:11;18.23;;;7.90;;
42066;SDS011;27734;47.028;28.820;2023-08-01T08:11:53;14.97;;;8.23;;
42066;SDS011;27734;47.028;28.820;2023-08-01T08:14:49;14.28;;;7.53;;
42066;SDS011;27734;47.028;28.820;2023-08-01T08:17:29;14.03;;;7.30;;
42066;SDS011;27734;47.028;28.820;2023-08-01T08:20:30;11.13;;;7.07;;
42066;SDS011;27734;47.028;28.820;2023-08-01T08:26:37;12.43;;;7.47;;
42066;SDS011;27734;47.028;28.820;2023-08-01T08:29:15;10.37;;;6.20;;
42066;SDS011;27734;47.028;28.820;2023-08-01T08:32:07;9.97;;;5.93;;
42066;SDS011;27734;47.028;28.820;2023-08-01T08:35:15;12.83;;;6.27;;
42066;SDS011;27734;47.028;28.820;2023-08-01T08:37:55;10.37;;;5.50;;
42066;SDS011;27734;47.028;28.820;2023-08-01T08:40:43;11.03;;;5.90;;
42066;SDS011;27734;47.028;28.820;2023-08-01T08:46:26;7.83;;;4.73;;
42066;SDS011;27734;47.028;28.820;2023-08-01T08:49:04;10.20;;;4.70;;
42066;SDS011;27734;47.028;28.820;2023-08-01T08:52:07;7.53;;;4.70;;
42066;SDS011;27734;47.028;28.820;2023-08-01T08:54:42;6.20;;;4.50;;
42066;SDS011;27734;47.028;28.820;2023-08-01T08:57:16;7.25;;;4.97;;
42066;SDS011;27734;47.028;28.820;2023-08-01T08:59:56;7.87;;;4.97;;
42066;SDS011;27734;47.028;28.820;2023-08-01T09:02:30;6.27;;;4.50;;
42066;SDS011;27734;47.028;28.820;2023-08-01T09:05:27;13.43;;;5.33;;
42066;SDS011;27734;47.028;28.820;2023-08-01T09:08:07;11.37;;;4.53;;
42066;SDS011;27734;47.028;28.820;2023-08-01T09:10:49;7.63;;;4.50;;
42066;SDS011;27734;47.028;28.820;2023-08-01T09:13:25;6.85;;;4.20;;
42066;SDS011;27734;47.028;28.820;2023-08-01T09:15:57;8.43;;;4.60;;
42066;SDS011;27734;47.028;28.820;2023-08-01T09:18:48;5.47;;;3.47;;
42066;SDS011;27734;47.028;28.820;2023-08-01T09:21:25;4.97;;;3.47;;
42066;SDS011;27734;47.028;28.820;2023-08-01T09:23:58;6.37;;;3.50;;
42066;SDS011;27734;47.028;28.820;2023-08-01T09:26:45;5.87;;;3.70;;
42066;SDS011;27734;47.028;28.820;2023-08-01T09:31:54;3.87;;;3.27;;
42066;SDS011;27734;47.028;28.820;2023-08-01T09:34:27;3.60;;;3.30;;
42066;SDS011;27734;47.028;28.820;2023-08-01T09:37:00;10.30;;;3.40;;
42066;SDS011;27734;47.028;28.820;2023-08-01T09:39:40;6.07;;;3.90;;
42066;SDS011;27734;47.028;28.820;2023-08-01T09:42:17;10.07;;;4.10;;
42066;SDS011;27734;47.028;28.820;2023-08-01T09:44:50;5.67;;;3.90;;
42066;SDS011;27734;47.028;28.820;2023-08-01T09:50:21;4.87;;;3.50;;
42066;SDS011;27734;47.028;28.820;2023-08-01T09:52:53;5.60;;;3.10;;
42066;SDS011;27734;47.028;28.820;2023-08-01T09:55:37;6.87;;;3.63;;
42066;SDS011;27734;47.028;28.820;2023-08-01T09:58:13;5.03;;;3.50;;
42066;SDS011;27734;47.028;28.820;2023-08-01T10:03:25;5.60;;;3.10;;
42066;SDS011;27734;47.028;28.820;2023-08-01T10:06:04;5.23;;;2.97;;
42066;SDS011;27734;47.028;28.820;2023-08-01T10:08:40;7.30;;;3.30;;
42066;SDS011;27734;47.028;28.820;2023-08-01T10:11:13;4.70;;;3.30;;
42066;SDS011;27734;47.028;28.820;2023-08-01T10:16:23;4.77;;;3.30;;
42066;SDS011;27734;47.028;28.820;2023-08-01T10:18:58;6.97;;;3.40;;
42066;SDS011;27734;47.028;28.820;2023-08-01T10:21:34;5.63;;;2.67;;
42066;SDS011;27734;47.028;28.820;2023-08-01T10:24:11;7.23;;;3.50;;
42066;SDS011;27734;47.028;28.820;2023-08-01T10:26:52;6.70;;;3.20;;
42066;SDS011;27734;47.028;28.820;2023-08-01T10:29:36;7.73;;;2.90;;
42066;SDS011;27734;47.028;28.820;2023-08-01T10:32:17;5.10;;;3.13;;
42066;SDS011;27734;47.028;28.820;2023-08-01T10:34:57;3.90;;;2.90;;
42066;SDS011;27734;47.028;28.820;2023-08-01T10:37:42;6.40;;;2.83;;
42066;SDS011;27734;47.028;28.820;2023-08-01T10:40:16;5.53;;;2.90;;
42066;SDS011;27734;47.028;28.820;2023-08-01T10:42:57;10.40;;;3.75;;
42066;SDS011;27734;47.028;28.820;2023-08-01T10:45:29;8.20;;;2.87;;
42066;SDS011;27734;47.028;28.820;2023-08-01T10:48:21;5.07;;;2.97;;
42066;SDS011;27734;47.028;28.820;2023-08-01T10:50:56;3.98;;;2.72;;
42066;SDS011;27734;47.028;28.820;2023-08-01T10:53:38;5.23;;;3.30;;
42066;SDS011;27734;47.028;28.820;2023-08-01T10:56:26;6.87;;;2.90;;
42066;SDS011;27734;47.028;28.820;2023-08-01T10:59:00;5.53;;;2.80;;
42066;SDS011;27734;47.028;28.820;2023-08-01T11:01:47;4.37;;;2.70;;
42066;SDS011;27734;47.028;28.820;2023-08-01T11:07:31;3.43;;;2.67;;
42066;SDS011;27734;47.028;28.820;2023-08-01T11:10:11;5.90;;;2.90;;
42066;SDS011;27734;47.028;28.820;2023-08-01T11:12:48;4.07;;;2.70;;
42066;SDS011;27734;47.028;28.820;2023-08-01T11:15:36;3.60;;;2.70;;
42066;SDS011;27734;47.028;28.820;2023-08-01T11:18:44;4.13;;;2.67;;
42066;SDS011;27734;47.028;28.820;2023-08-01T11:21:36;4.10;;;2.50;;
42066;SDS011;27734;47.028;28.820;2023-08-01T11:24:21;4.57;;;2.90;;
42066;SDS011;27734;47.028;28.820;2023-08-01T11:27:01;3.77;;;2.53;;
42066;SDS011;27734;47.028;28.820;2023-08-01T11:29:41;5.50;;;3.25;;
42066;SDS011;27734;47.028;28.820;2023-08-01T11:32:35;2.77;;;2.57;;
42066;SDS011;27734;47.028;28.820;2023-08-01T11:35:09;3.67;;;2.90;;
42066;SDS011;27734;47.028;28.820;2023-08-01T11:37:53;6.00;;;2.80;;
42066;SDS011;27734;47.028;28.820;2023-08-01T11:44:03;4.37;;;2.90;;
42066;SDS011;27734;47.028;28.820;2023-08-01T11:46:38;3.37;;;2.70;;
42066;SDS011;27734;47.028;28.820;2023-08-01T11:52:29;7.53;;;2.90;;
42066;SDS011;27734;47.028;28.820;2023-08-01T11:55:17;4.70;;;3.00;;
42066;SDS011;27734;47.028;28.820;2023-08-01T11:58:32;5.60;;;2.93;;
42066;SDS011;27734;47.028;28.820;2023-08-01T12:01:10;3.43;;;2.40;;
42066;SDS011;27734;47.028;28.820;2023-08-01T12:03:46;3.80;;;2.80;;
42066;SDS011;27734;47.028;28.820;2023-08-01T12:06:23;5.80;;;3.00;;
42066;SDS011;27734;47.028;28.820;2023-08-01T12:08:55;3.60;;;2.70;;
42066;SDS011;27734;47.028;28.820;2023-08-01T12:12:04;3.97;;;2.70;;
42066;SDS011;27734;47.028;28.820;2023-08-01T12:14:42;5.23;;;2.90;;
42066;SDS011;27734;47.028;28.820;2023-08-01T12:17:25;4.90;;;2.77;;
42066;SDS011;27734;47.028;28.820;2023-08-01T12:20:14;4.95;;;2.95;;
42066;SDS011;27734;47.028;28.820;2023-08-01T12:23:00;4.60;;;3.03;;
42066;SDS011;27734;47.028;28.820;2023-08-01T12:25:46;3.87;;;2.80;;
42066;SDS011;27734;47.028;28.820;2023-08-01T12:28:26;4.40;;;2.75;;
42066;SDS011;27734;47.028;28.820;2023-08-01T12:31:44;4.20;;;3.10;;
42066;SDS011;27734;47.028;28.820;2023-08-01T12:34:19;3.50;;;2.80;;
42066;SDS011;27734;47.028;28.820;2023-08-01T12:36:58;3.37;;;2.73;;
42066;SDS011;27734;47.028;28.820;2023-08-01T12:39:29;4.13;;;3.17;;
42066;SDS011;27734;47.028;28.820;2023-08-01T12:42:06;7.45;;;2.90;;
42066;SDS011;27734;47.028;28.820;2023-08-01T12:44:53;3.30;;;3.00;;
42066;SDS011;27734;47.028;28.820;2023-08-01T12:47:38;5.17;;;3.10;;
42066;SDS011;27734;47.028;28.820;2023-08-01T12:50:12;5.60;;;2.97;;
42066;SDS011;27734;47.028;28.820;2023-08-01T12:53:09;5.70;;;2.97;;
42066;SDS011;27734;47.028;28.820;2023-08-01T12:55:46;3.33;;;3.00;;
42066;SDS011;27734;47.028;28.820;2023-08-01T12:58:19;3.70;;;2.63;;
42066;SDS011;27734;47.028;28.820;2023-08-01T13:00:53;3.17;;;2.87;;
42066;SDS011;27734;47.028;28.820;2023-08-01T13:03:32;3.17;;;2.70;;
42066;SDS011;27734;47.028;28.820;2023-08-01T13:06:11;6.93;;;2.97;;
42066;SDS011;27734;47.028;28.820;2023-08-01T13:08:45;4.77;;;2.97;;
42066;SDS011;27734;47.028;28.820;2023-08-01T13:11:16;3.70;;;2.60;;
42066;SDS011;27734;47.028;28.820;2023-08-01T13:13:48;3.60;;;2.90;;
42066;SDS011;27734;47.028;28.820;2023-08-01T13:16:31;6.23;;;2.90;;
42066;SDS011;27734;47.028;28.820;2023-08-01T13:19:17;3.10;;;2.80;;
42066;SDS011;27734;47.028;28.820;2023-08-01T13:21:51;5.70;;;3.00;;
42066;SDS011;27734;47.028;28.820;2023-08-01T13:24:26;5.30;;;3.17;;
42066;SDS011;27734;47.028;28.820;2023-08-01T13:27:07;3.30;;;2.80;;
42066;SDS011;27734;47.028;28.820;2023-08-01T13:29:41;4.03;;;3.00;;
42066;SDS011;27734;47.028;28.820;2023-08-01T13:32:13;3.98;;;3.08;;
42066;SDS011;27734;47.028;28.820;2023-08-01T13:34:54;4.67;;;3.10;;
42066;SDS011;27734;47.028;28.820;2023-08-01T13:37:33;7.95;;;3.30;;
42066;SDS011;27734;47.028;28.820;2023-08-01T13:40:12;3.93;;;2.83;;
42066;SDS011;27734;47.028;28.820;2023-08-01T13:42:58;7.83;;;3.07;;
42066;SDS011;27734;47.028;28.820;2023-08-01T13:49:03;4.60;;;3.10;;
42066;SDS011;27734;47.028;28.820;2023-08-01T13:51:44;5.07;;;3.20;;
42066;SDS011;27734;47.028;28.820;2023-08-01T13:54:26;3.53;;;3.10;;
42066;SDS011;27734;47.028;28.820;2023-08-01T13:57:08;3.83;;;3.10;;
42066;SDS011;27734;47.028;28.820;2023-08-01T13:59:55;5.53;;;3.10;;
42066;SDS011;27734;47.028;28.820;2023-08-01T14:02:28;6.40;;;3.00;;
42066;SDS011;27734;47.028;28.820;2023-08-01T14:05:03;3.67;;;2.77;;
42066;SDS011;27734;47.028;28.820;2023-08-01T14:07:42;5.13;;;3.10;;
42066;SDS011;27734;47.028;28.820;2023-08-01T14:10:39;6.60;;;3.20;;
42066;SDS011;27734;47.028;28.820;2023-08-01T14:13:21;4.53;;;3.10;;
42066;SDS011;27734;47.028;28.820;2023-08-01T14:16:15;4.40;;;2.90;;
42066;SDS011;27734;47.028;28.820;2023-08-01T14:19:21;4.90;;;2.80;;
42066;SDS011;27734;47.028;28.820;2023-08-01T14:22:21;4.63;;;3.13;;
42066;SDS011;27734;47.028;28.820;2023-08-01T14:25:00;6.77;;;2.97;;
42066;SDS011;27734;47.028;28.820;2023-08-01T14:27:55;5.50;;;3.20;;
42066;SDS011;27734;47.028;28.820;2023-08-01T14:30:41;3.57;;;2.83;;
42066;SDS011;27734;47.028;28.820;2023-08-01T14:33:13;5.87;;;3.03;;
42066;SDS011;27734;47.028;28.820;2023-08-01T14:35:48;3.57;;;2.87;;
42066;SDS011;27734;47.028;28.820;2023-08-01T14:38:19;4.63;;;3.10;;
42066;SDS011;27734;47.028;28.820;2023-08-01T14:40:55;10.17;;;3.07;;
42066;SDS011;27734;47.028;28.820;2023-08-01T14:43:30;3.63;;;3.20;;
42066;SDS011;27734;47.028;28.820;2023-08-01T14:46:05;3.65;;;3.02;;
42066;SDS011;27734;47.028;28.820;2023-08-01T14:48:38;6.50;;;3.33;;
42066;SDS011;27734;47.028;28.820;2023-08-01T14:51:09;7.13;;;3.10;;
42066;SDS011;27734;47.028;28.820;2023-08-01T14:53:41;5.83;;;2.83;;
42066;SDS011;27734;47.028;28.820;2023-08-01T14:56:13;3.37;;;3.07;;
42066;SDS011;27734;47.028;28.820;2023-08-01T14:58:44;4.23;;;3.00;;
42066;SDS011;27734;47.028;28.820;2023-08-01T15:01:18;4.00;;;2.93;;
42066;SDS011;27734;47.028;28.820;2023-08-01T15:04:09;4.23;;;2.93;;
42066;SDS011;27734;47.028;28.820;2023-08-01T15:07:00;3.60;;;3.13;;
42066;SDS011;27734;47.028;28.820;2023-08-01T15:09:36;3.93;;;3.10;;
42066;SDS011;27734;47.028;28.820;2023-08-01T15:12:11;4.07;;;3.20;;
42066;SDS011;27734;47.028;28.820;2023-08-01T15:14:42;4.03;;;2.90;;
42066;SDS011;27734;47.028;28.820;2023-08-01T15:17:13;3.20;;;2.90;;
42066;SDS011;27734;47.028;28.820;2023-08-01T15:19:45;3.63;;;2.90;;
42066;SDS011;27734;47.028;28.820;2023-08-01T15:22:17;4.37;;;3.00;;
42066;SDS011;27734;47.028;28.820;2023-08-01T15:24:49;3.20;;;2.90;;
42066;SDS011;27734;47.028;28.820;2023-08-01T15:27:21;3.53;;;3.00;;
42066;SDS011;27734;47.028;28.820;2023-08-01T15:29:52;4.53;;;3.03;;
42066;SDS011;27734;47.028;28.820;2023-08-01T15:32:23;6.40;;;2.97;;
42066;SDS011;27734;47.028;28.820;2023-08-01T15:34:55;8.80;;;5.27;;
42066;SDS011;27734;47.028;28.820;2023-08-01T15:37:26;5.47;;;3.37;;
42066;SDS011;27734;47.028;28.820;2023-08-01T15:39:58;3.93;;;3.10;;
42066;SDS011;27734;47.028;28.820;2023-08-01T15:42:31;5.87;;;2.83;;
42066;SDS011;27734;47.028;28.820;2023-08-01T15:45:03;4.70;;;3.40;;
42066;SDS011;27734;47.028;28.820;2023-08-01T15:47:35;4.33;;;3.02;;
42066;SDS011;27734;47.028;28.820;2023-08-01T15:50:07;4.40;;;3.20;;
42066;SDS011;27734;47.028;28.820;2023-08-01T15:52:38;4.07;;;3.00;;
42066;SDS011;27734;47.028;28.820;2023-08-01T15:55:10;6.07;;;3.23;;
42066;SDS011;27734;47.028;28.820;2023-08-01T15:57:41;6.27;;;3.50;;
42066;SDS011;27734;47.028;28.820;2023-08-01T16:00:16;4.17;;;3.13;;